createdAt,value
2019-05-13T00:04:39.098Z,1
2019-05-13T00:09:44.073Z,1
2019-05-13T00:14:43.924Z,1
2019-05-13T00:19:46.499Z,1
2019-05-13T00:24:48.823Z,1
2019-05-13T00:29:53.388Z,1
2019-05-13T00:34:53.742Z,1
2019-05-13T00:39:56.469Z,1
2019-05-13T00:44:58.533Z,1
2019-05-13T00:50:03.496Z,1
2019-05-13T00:55:04.200Z,1
2019-05-13T01:00:05.875Z,1
2019-05-13T01:05:08.485Z,1
2019-05-13T01:10:12.897Z,1
2019-05-13T01:15:13.585Z,1
2019-05-13T01:20:15.654Z,1
2019-05-13T01:25:18.274Z,1
2019-05-13T01:30:20.498Z,1
2019-05-13T01:35:23.561Z,1
2019-05-13T01:40:25.452Z,1
2019-05-13T01:45:27.881Z,1
2019-05-13T01:50:30.274Z,1
2019-05-13T01:55:33.841Z,1
2019-05-13T02:00:35.664Z,1
2019-05-13T02:05:37.684Z,1
2019-05-13T02:15:42.476Z,1
2019-05-13T02:20:44.925Z,1
2019-05-13T02:25:47.340Z,1
2019-05-13T02:30:49.918Z,1
2019-05-13T02:35:53.247Z,1
2019-05-13T02:40:54.997Z,1
2019-05-13T02:45:57.092Z,1
2019-05-13T02:51:03.281Z,1
2019-05-13T02:56:03.110Z,1
2019-05-13T03:01:04.547Z,1
2019-05-13T03:06:06.910Z,1
2019-05-13T03:11:12.335Z,1
2019-05-13T03:16:13.079Z,1
2019-05-13T03:21:14.195Z,1
2019-05-13T03:26:16.713Z,5
2019-05-13T04:46:55.757Z,2
2019-05-13T04:57:02.873Z,2
2019-05-13T05:02:04.724Z,1
2019-05-13T05:07:05.417Z,2
2019-05-13T05:12:07.874Z,2
2019-05-13T05:17:12.361Z,3
2019-05-13T05:22:13.382Z,2
2019-05-13T05:27:15.136Z,2
2019-05-13T05:32:17.581Z,2
2019-05-13T05:37:21.691Z,2
2019-05-13T05:42:22.444Z,2
2019-05-13T05:47:24.957Z,2
2019-05-13T05:52:27.362Z,2
2019-05-13T05:57:31.381Z,2
2019-05-13T06:07:34.654Z,2
2019-05-13T06:12:37.383Z,2
2019-05-13T06:17:41.256Z,2
2019-05-13T06:22:42.594Z,2
2019-05-13T06:27:44.486Z,2
2019-05-13T06:32:46.957Z,2
2019-05-13T06:37:49.302Z,2
2019-05-13T06:42:52.190Z,3
2019-05-13T06:47:54.196Z,2
2019-05-13T06:52:56.649Z,2
2019-05-13T06:57:59.076Z,2
2019-05-13T07:03:02.212Z,2
2019-05-13T07:08:03.960Z,2
2019-05-13T07:13:06.527Z,3
2019-05-13T07:18:11.348Z,3
2019-05-13T07:23:12.091Z,2
2019-05-13T07:28:13.987Z,2
2019-05-13T07:33:16.222Z,2
2019-05-13T07:38:18.718Z,2
2019-05-13T07:43:21.450Z,2
2019-05-13T07:48:27.431Z,4
2019-05-13T07:53:26.794Z,3
2019-05-13T07:58:28.380Z,2
2019-05-13T08:03:31.673Z,3
2019-05-13T08:08:33.258Z,2
2019-05-13T08:13:35.696Z,2
2019-05-13T08:18:38.141Z,3
2019-05-13T08:23:41.667Z,2
2019-05-13T08:28:56.857Z,3
2019-05-13T08:33:45.494Z,2
2019-05-13T08:38:47.888Z,3
2019-05-13T08:43:52.311Z,3
2019-05-13T08:48:53.003Z,2
2019-05-13T08:53:55.492Z,2
2019-05-13T08:58:57.618Z,2
2019-05-13T09:04:02.192Z,2
2019-05-13T09:09:02.688Z,2
2019-05-13T09:14:04.949Z,2
2019-05-13T09:19:07.497Z,3
2019-05-13T09:24:21.594Z,2
2019-05-13T09:29:12.501Z,2
2019-05-13T09:34:14.989Z,2
2019-05-13T09:39:17.453Z,1
2019-05-13T09:44:21.745Z,3
2019-05-13T09:49:23.592Z,2
2019-05-13T09:54:24.682Z,2
2019-05-13T09:59:26.944Z,2
2019-05-13T10:04:31.376Z,2
2019-05-13T10:09:32.795Z,1
2019-05-13T10:14:34.279Z,1
2019-05-13T10:19:36.944Z,2
2019-05-13T10:29:42.399Z,1
2019-05-13T10:34:43.981Z,2
2019-05-13T10:39:46.552Z,2
2019-05-13T10:44:51.729Z,2
2019-05-13T10:49:52.288Z,1
2019-05-13T10:54:53.860Z,1
2019-05-13T10:59:59.633Z,2
2019-05-13T11:04:58.725Z,1
2019-05-13T11:10:02.856Z,2
2019-05-13T11:15:03.566Z,2
2019-05-13T11:20:06.167Z,2
2019-05-13T11:30:10.880Z,1
2019-05-13T11:35:13.258Z,1
2019-05-13T11:40:16.172Z,1
2019-05-13T11:45:18.127Z,2
2019-05-13T11:50:22.299Z,1
2019-05-13T11:55:23.202Z,1
2019-05-13T12:00:25.652Z,1
2019-05-13T12:05:27.973Z,1
2019-05-13T12:10:34.791Z,1
2019-05-13T12:15:45.193Z,1
2019-05-13T12:20:35.221Z,1
2019-05-13T12:25:37.741Z,1
2019-05-13T12:30:41.752Z,1
2019-05-13T12:35:42.620Z,1
2019-05-13T12:40:47.223Z,2
2019-05-13T12:45:47.481Z,1
2019-05-13T12:50:53.751Z,2
2019-05-13T12:55:56.779Z,2
2019-05-13T13:06:21.845Z,2
2019-05-13T13:11:05.521Z,1
2019-05-13T13:16:03.670Z,2
2019-05-13T13:21:07.163Z,2
2019-05-13T13:26:14.578Z,6
2019-05-13T13:31:12.116Z,2
2019-05-13T13:36:15.317Z,2
2019-05-13T13:41:22.206Z,2
2019-05-13T13:46:36.235Z,2
2019-05-13T13:51:25.882Z,2
2019-05-13T13:56:25.163Z,2
2019-05-13T14:01:27.099Z,2
2019-05-13T14:07:21.373Z,2
2019-05-13T14:11:28.929Z,2
2019-05-13T14:16:35.023Z,2
2019-05-13T14:21:33.826Z,2
2019-05-13T14:26:36.281Z,2
2019-05-13T14:31:41.121Z,2
2019-05-13T14:36:41.112Z,2
2019-05-13T14:41:43.742Z,1
2019-05-13T14:51:48.452Z,2
2019-05-13T14:56:51.995Z,2
2019-05-13T15:01:53.488Z,2
2019-05-13T15:06:55.773Z,2
2019-05-13T15:11:58.246Z,1
2019-05-13T15:17:06.195Z,2
2019-05-13T15:22:03.223Z,1
2019-05-13T15:27:05.530Z,1
2019-05-13T15:32:08.181Z,2
2019-05-13T15:37:11.234Z,2
2019-05-13T15:42:12.844Z,1
2019-05-13T15:47:22.626Z,2
2019-05-13T15:52:18.429Z,1
2019-05-13T15:57:21.323Z,1
2019-05-13T16:02:22.823Z,1
2019-05-13T16:07:25.081Z,1
2019-05-13T16:12:27.522Z,1
2019-05-13T16:17:38.630Z,1
2019-05-13T16:22:32.424Z,1
2019-05-13T16:27:34.825Z,1
2019-05-13T16:32:37.234Z,1
2019-05-13T16:37:41.862Z,1
2019-05-13T16:42:42.440Z,1
2019-05-13T16:47:56.517Z,1
2019-05-13T16:52:47.026Z,1
2019-05-13T16:57:51.302Z,1
2019-05-13T17:02:52.016Z,1
2019-05-13T17:07:54.392Z,1
2019-05-13T17:12:56.754Z,1
2019-05-13T17:18:09.058Z,1
2019-05-13T17:23:01.935Z,1
2019-05-13T17:28:04.176Z,1
2019-05-13T17:33:06.714Z,1
2019-05-13T17:38:11.163Z,1
2019-05-13T17:43:11.907Z,1
2019-05-13T17:48:25.704Z,1
2019-05-13T17:53:16.326Z,1
2019-05-13T17:58:18.825Z,1
2019-05-13T18:03:21.185Z,1
2019-05-13T18:08:23.680Z,1
2019-05-13T18:13:26.285Z,1
2019-05-13T18:18:40.004Z,1
2019-05-13T18:23:30.938Z,1
2019-05-13T18:28:33.379Z,1
2019-05-13T18:33:35.830Z,1
2019-05-13T18:38:38.277Z,1
2019-05-13T18:43:41.305Z,1
2019-05-13T18:48:58.030Z,1
2019-05-13T18:53:45.748Z,1
2019-05-13T18:58:48.020Z,1
2019-05-13T19:03:50.735Z,1
2019-05-13T19:08:52.996Z,1
2019-05-13T19:13:55.369Z,1
2019-05-13T19:19:10.608Z,2
2019-05-13T19:24:02.012Z,1
2019-05-13T19:29:02.649Z,1
2019-05-13T19:34:05.389Z,1
2019-05-13T19:39:07.767Z,1
2019-05-13T19:44:09.998Z,2
2019-05-13T19:49:27.355Z,1
2019-05-13T19:54:14.917Z,2
2019-05-13T19:59:17.438Z,2
2019-05-13T20:04:21.670Z,2
2019-05-13T20:09:22.201Z,2
2019-05-13T20:14:24.601Z,2
2019-05-13T20:19:27.142Z,2
2019-05-13T20:24:31.295Z,2
2019-05-13T20:29:31.969Z,2
2019-05-13T20:34:34.399Z,2
2019-05-13T20:39:36.946Z,2
2019-05-13T20:44:39.258Z,2
2019-05-13T20:49:41.906Z,2
2019-05-13T20:54:44.170Z,2
2019-05-13T20:59:46.648Z,2
2019-05-13T21:04:49.347Z,2
2019-05-13T21:09:51.990Z,2
2019-05-13T21:14:53.917Z,2
2019-05-13T21:19:59.780Z,3
2019-05-13T21:24:58.864Z,3
2019-05-13T21:30:01.366Z,2
2019-05-13T21:35:03.778Z,3
2019-05-13T21:40:07.448Z,6
2019-05-13T21:45:11.131Z,8
2019-05-13T21:50:11.589Z,5
2019-05-13T21:55:13.458Z,7
2019-05-13T22:00:15.925Z,6
2019-05-13T22:05:18.377Z,6
2019-05-13T22:10:21.596Z,6
2019-05-13T22:15:23.263Z,5
2019-05-13T22:20:25.631Z,5
2019-05-13T22:25:28.093Z,4
2019-05-13T22:30:33.197Z,4
2019-05-13T22:35:33.015Z,4
2019-05-13T22:40:35.459Z,4
2019-05-13T22:45:37.959Z,4
2019-05-13T22:50:41.542Z,4
2019-05-13T22:55:42.826Z,4
2019-05-13T23:00:45.208Z,4
2019-05-13T23:05:47.599Z,3
2019-05-13T23:10:51.411Z,2
2019-05-13T23:15:52.758Z,3
2019-05-13T23:20:54.909Z,3
2019-05-13T23:25:57.383Z,2
2019-05-13T23:31:01.650Z,2
2019-05-13T23:36:02.251Z,2
2019-05-13T23:41:04.768Z,3
2019-05-13T23:46:07.170Z,2
2019-05-13T23:51:09.648Z,2
2019-05-13T23:56:12.027Z,2
